sensor_id;sensor_type;location;lat;lon;timestamp;temperature;humidity
2763;DHT22;1389;51.490;7.338;2023-03-12T00:00:34;2.20;86.70
2763;DHT22;1389;51.490;7.338;2023-03-12T00:03:00;2.20;86.80
2763;DHT22;1389;51.490;7.338;2023-03-12T00:05:27;2.20;86.80
2763;DHT22;1389;51.490;7.338;2023-03-12T00:07:53;2.20;87.00
2763;DHT22;1389;51.490;7.338;2023-03-12T00:10:19;2.20;86.70
2763;DHT22;1389;51.490;7.338;2023-03-12T00:12:45;2.20;87.00
2763;DHT22;1389;51.490;7.338;2023-03-12T00:15:12;2.20;86.90
2763;DHT22;1389;51.490;7.338;2023-03-12T00:17:38;2.20;86.90
2763;DHT22;1389;51.490;7.338;2023-03-12T00:20:04;2.20;87.20
2763;DHT22;1389;51.490;7.338;2023-03-12T00:22:33;2.20;86.90
2763;DHT22;1389;51.490;7.338;2023-03-12T00:24:59;2.10;86.50
2763;DHT22;1389;51.490;7.338;2023-03-12T00:27:26;2.10;86.50
2763;DHT22;1389;51.490;7.338;2023-03-12T00:29:52;2.10;86.50
2763;DHT22;1389;51.490;7.338;2023-03-12T00:32:19;2.10;86.40
2763;DHT22;1389;51.490;7.338;2023-03-12T00:34:53;2.10;86.40
2763;DHT22;1389;51.490;7.338;2023-03-12T00:37:20;2.10;86.60
2763;DHT22;1389;51.490;7.338;2023-03-12T00:39:47;2.10;86.60
2763;DHT22;1389;51.490;7.338;2023-03-12T00:42:13;2.10;86.70
2763;DHT22;1389;51.490;7.338;2023-03-12T00:44:39;2.10;86.90
2763;DHT22;1389;51.490;7.338;2023-03-12T00:47:06;2.00;86.70
2763;DHT22;1389;51.490;7.338;2023-03-12T00:49:32;2.10;86.70
2763;DHT22;1389;51.490;7.338;2023-03-12T00:51:58;2.00;86.90
2763;DHT22;1389;51.490;7.338;2023-03-12T00:54:24;2.00;86.90
2763;DHT22;1389;51.490;7.338;2023-03-12T00:56:50;2.10;87.00
2763;DHT22;1389;51.490;7.338;2023-03-12T00:59:16;2.10;86.50
2763;DHT22;1389;51.490;7.338;2023-03-12T01:01:42;2.10;86.50
2763;DHT22;1389;51.490;7.338;2023-03-12T01:04:08;2.10;86.50
2763;DHT22;1389;51.490;7.338;2023-03-12T01:06:34;2.10;86.70
2763;DHT22;1389;51.490;7.338;2023-03-12T01:09:02;2.10;86.70
2763;DHT22;1389;51.490;7.338;2023-03-12T01:11:30;2.10;86.70
2763;DHT22;1389;51.490;7.338;2023-03-12T01:13:58;2.10;86.90
2763;DHT22;1389;51.490;7.338;2023-03-12T01:16:26;2.10;86.70
2763;DHT22;1389;51.490;7.338;2023-03-12T01:18:59;2.10;86.50
2763;DHT22;1389;51.490;7.338;2023-03-12T01:21:26;2.10;86.50
2763;DHT22;1389;51.490;7.338;2023-03-12T01:23:53;2.20;86.60
2763;DHT22;1389;51.490;7.338;2023-03-12T01:26:20;2.20;86.50
2763;DHT22;1389;51.490;7.338;2023-03-12T01:28:46;2.20;86.60
2763;DHT22;1389;51.490;7.338;2023-03-12T01:31:14;2.20;86.60
2763;DHT22;1389;51.490;7.338;2023-03-12T01:33:40;2.20;86.50
2763;DHT22;1389;51.490;7.338;2023-03-12T01:36:21;2.20;86.50
2763;DHT22;1389;51.490;7.338;2023-03-12T01:38:50;2.20;86.60
2763;DHT22;1389;51.490;7.338;2023-03-12T01:41:16;2.20;86.60
2763;DHT22;1389;51.490;7.338;2023-03-12T01:43:43;2.20;86.60
2763;DHT22;1389;51.490;7.338;2023-03-12T01:46:23;2.20;86.70
2763;DHT22;1389;51.490;7.338;2023-03-12T01:49:02;2.20;86.30
2763;DHT22;1389;51.490;7.338;2023-03-12T01:51:33;2.20;86.40
2763;DHT22;1389;51.490;7.338;2023-03-12T01:54:04;2.20;86.50
2763;DHT22;1389;51.490;7.338;2023-03-12T01:56:33;2.30;86.50
2763;DHT22;1389;51.490;7.338;2023-03-12T01:59:06;2.30;86.40
2763;DHT22;1389;51.490;7.338;2023-03-12T02:01:33;2.30;86.30
2763;DHT22;1389;51.490;7.338;2023-03-12T02:04:00;2.30;86.40
2763;DHT22;1389;51.490;7.338;2023-03-12T02:06:36;2.30;86.30
2763;DHT22;1389;51.490;7.338;2023-03-12T02:09:05;2.40;86.30
2763;DHT22;1389;51.490;7.338;2023-03-12T02:11:31;2.40;86.30
2763;DHT22;1389;51.490;7.338;2023-03-12T02:13:57;2.40;86.40
2763;DHT22;1389;51.490;7.338;2023-03-12T02:16:24;2.50;86.10
2763;DHT22;1389;51.490;7.338;2023-03-12T02:18:52;2.50;86.30
2763;DHT22;1389;51.490;7.338;2023-03-12T02:21:23;2.50;86.30
2763;DHT22;1389;51.490;7.338;2023-03-12T02:24:07;2.50;86.10
2763;DHT22;1389;51.490;7.338;2023-03-12T02:26:38;2.50;86.10
2763;DHT22;1389;51.490;7.338;2023-03-12T02:29:06;2.50;86.00
2763;DHT22;1389;51.490;7.338;2023-03-12T02:31:41;2.50;86.30
2763;DHT22;1389;51.490;7.338;2023-03-12T02:34:08;2.50;86.30
2763;DHT22;1389;51.490;7.338;2023-03-12T02:36:34;2.60;85.90
2763;DHT22;1389;51.490;7.338;2023-03-12T02:39:01;2.60;85.90
2763;DHT22;1389;51.490;7.338;2023-03-12T02:41:33;2.60;86.00
2763;DHT22;1389;51.490;7.338;2023-03-12T02:44:21;2.60;85.90
2763;DHT22;1389;51.490;7.338;2023-03-12T02:46:50;2.60;86.00
2763;DHT22;1389;51.490;7.338;2023-03-12T02:49:19;2.60;85.80
2763;DHT22;1389;51.490;7.338;2023-03-12T02:51:46;2.60;85.90
2763;DHT22;1389;51.490;7.338;2023-03-12T02:54:13;2.60;85.90
2763;DHT22;1389;51.490;7.338;2023-03-12T02:56:39;2.60;85.90
2763;DHT22;1389;51.490;7.338;2023-03-12T02:59:07;2.60;85.70
2763;DHT22;1389;51.490;7.338;2023-03-12T03:01:33;2.60;85.50
2763;DHT22;1389;51.490;7.338;2023-03-12T03:04:00;2.70;85.40
2763;DHT22;1389;51.490;7.338;2023-03-12T03:06:27;2.70;85.30
2763;DHT22;1389;51.490;7.338;2023-03-12T03:08:53;2.80;85.20
2763;DHT22;1389;51.490;7.338;2023-03-12T03:11:20;2.80;85.30
2763;DHT22;1389;51.490;7.338;2023-03-12T03:13:50;2.80;85.50
2763;DHT22;1389;51.490;7.338;2023-03-12T03:16:16;2.90;85.40
2763;DHT22;1389;51.490;7.338;2023-03-12T03:18:42;2.90;85.00
2763;DHT22;1389;51.490;7.338;2023-03-12T03:21:09;2.90;84.90
2763;DHT22;1389;51.490;7.338;2023-03-12T03:23:36;2.90;85.00
2763;DHT22;1389;51.490;7.338;2023-03-12T03:26:02;2.80;85.10
2763;DHT22;1389;51.490;7.338;2023-03-12T03:28:29;2.80;85.10
2763;DHT22;1389;51.490;7.338;2023-03-12T03:30:56;2.80;85.10
2763;DHT22;1389;51.490;7.338;2023-03-12T03:33:28;2.80;85.20
2763;DHT22;1389;51.490;7.338;2023-03-12T03:35:56;2.80;85.10
2763;DHT22;1389;51.490;7.338;2023-03-12T03:38:25;2.70;85.10
2763;DHT22;1389;51.490;7.338;2023-03-12T03:40:52;2.70;85.10
2763;DHT22;1389;51.490;7.338;2023-03-12T03:43:19;2.70;85.20
2763;DHT22;1389;51.490;7.338;2023-03-12T03:45:45;2.70;85.50
2763;DHT22;1389;51.490;7.338;2023-03-12T03:48:11;2.70;85.60
2763;DHT22;1389;51.490;7.338;2023-03-12T03:50:38;2.80;85.40
2763;DHT22;1389;51.490;7.338;2023-03-12T03:53:07;2.70;85.10
2763;DHT22;1389;51.490;7.338;2023-03-12T03:55:38;2.70;85.10
2763;DHT22;1389;51.490;7.338;2023-03-12T03:58:04;2.70;85.10
2763;DHT22;1389;51.490;7.338;2023-03-12T04:00:31;2.70;85.10
2763;DHT22;1389;51.490;7.338;2023-03-12T04:02:57;2.80;85.30
2763;DHT22;1389;51.490;7.338;2023-03-12T04:05:23;2.80;84.40
2763;DHT22;1389;51.490;7.338;2023-03-12T04:07:53;2.80;84.40
2763;DHT22;1389;51.490;7.338;2023-03-12T04:10:21;2.90;84.30
2763;DHT22;1389;51.490;7.338;2023-03-12T04:12:47;2.90;84.30
2763;DHT22;1389;51.490;7.338;2023-03-12T04:15:13;2.80;84.40
2763;DHT22;1389;51.490;7.338;2023-03-12T04:17:39;2.80;84.70
2763;DHT22;1389;51.490;7.338;2023-03-12T04:20:06;2.80;84.80
2763;DHT22;1389;51.490;7.338;2023-03-12T04:22:34;2.90;84.70
2763;DHT22;1389;51.490;7.338;2023-03-12T04:25:00;2.90;84.80
2763;DHT22;1389;51.490;7.338;2023-03-12T04:27:27;2.90;84.90
2763;DHT22;1389;51.490;7.338;2023-03-12T04:29:53;2.90;84.60
2763;DHT22;1389;51.490;7.338;2023-03-12T04:32:19;2.90;84.30
2763;DHT22;1389;51.490;7.338;2023-03-12T04:34:45;2.90;84.20
2763;DHT22;1389;51.490;7.338;2023-03-12T04:37:11;3.00;84.10
2763;DHT22;1389;51.490;7.338;2023-03-12T04:39:42;3.00;84.10
2763;DHT22;1389;51.490;7.338;2023-03-12T04:42:09;3.10;83.80
2763;DHT22;1389;51.490;7.338;2023-03-12T04:44:36;3.10;83.80
2763;DHT22;1389;51.490;7.338;2023-03-12T04:47:03;3.10;83.70
2763;DHT22;1389;51.490;7.338;2023-03-12T04:49:29;3.20;83.60
2763;DHT22;1389;51.490;7.338;2023-03-12T04:51:55;3.20;82.60
2763;DHT22;1389;51.490;7.338;2023-03-12T04:54:21;3.30;82.30
2763;DHT22;1389;51.490;7.338;2023-03-12T04:56:48;3.30;81.20
2763;DHT22;1389;51.490;7.338;2023-03-12T04:59:14;3.40;80.70
2763;DHT22;1389;51.490;7.338;2023-03-12T05:01:41;3.40;80.50
2763;DHT22;1389;51.490;7.338;2023-03-12T05:04:07;3.40;79.90
2763;DHT22;1389;51.490;7.338;2023-03-12T05:06:34;3.50;79.30
2763;DHT22;1389;51.490;7.338;2023-03-12T05:09:00;3.50;79.90
2763;DHT22;1389;51.490;7.338;2023-03-12T05:11:26;3.50;79.80
2763;DHT22;1389;51.490;7.338;2023-03-12T05:13:52;3.50;79.80
2763;DHT22;1389;51.490;7.338;2023-03-12T05:16:18;3.50;79.20
2763;DHT22;1389;51.490;7.338;2023-03-12T05:18:44;3.50;79.70
2763;DHT22;1389;51.490;7.338;2023-03-12T05:21:17;3.50;80.00
2763;DHT22;1389;51.490;7.338;2023-03-12T05:23:44;3.50;80.40
2763;DHT22;1389;51.490;7.338;2023-03-12T05:26:21;3.50;80.70
2763;DHT22;1389;51.490;7.338;2023-03-12T05:28:48;3.50;80.70
2763;DHT22;1389;51.490;7.338;2023-03-12T05:31:15;3.50;80.70
2763;DHT22;1389;51.490;7.338;2023-03-12T05:33:41;3.50;81.00
2763;DHT22;1389;51.490;7.338;2023-03-12T05:36:08;3.50;81.00
2763;DHT22;1389;51.490;7.338;2023-03-12T05:38:34;3.50;81.50
2763;DHT22;1389;51.490;7.338;2023-03-12T05:41:01;3.60;81.60
2763;DHT22;1389;51.490;7.338;2023-03-12T05:43:27;3.60;81.50
2763;DHT22;1389;51.490;7.338;2023-03-12T05:45:58;3.50;81.90
2763;DHT22;1389;51.490;7.338;2023-03-12T05:48:25;3.60;82.20
2763;DHT22;1389;51.490;7.338;2023-03-12T05:50:51;3.60;82.40
2763;DHT22;1389;51.490;7.338;2023-03-12T05:53:17;3.60;80.80
2763;DHT22;1389;51.490;7.338;2023-03-12T05:55:43;3.50;81.40
2763;DHT22;1389;51.490;7.338;2023-03-12T05:58:09;3.50;81.10
2763;DHT22;1389;51.490;7.338;2023-03-12T06:00:35;3.60;81.20
2763;DHT22;1389;51.490;7.338;2023-03-12T06:03:04;3.60;81.10
2763;DHT22;1389;51.490;7.338;2023-03-12T06:05:32;3.60;79.80
2763;DHT22;1389;51.490;7.338;2023-03-12T06:07:58;3.60;79.60
2763;DHT22;1389;51.490;7.338;2023-03-12T06:10:25;3.70;79.90
2763;DHT22;1389;51.490;7.338;2023-03-12T06:12:51;3.70;80.00
2763;DHT22;1389;51.490;7.338;2023-03-12T06:15:17;3.70;79.40
2763;DHT22;1389;51.490;7.338;2023-03-12T06:17:43;3.70;79.60
2763;DHT22;1389;51.490;7.338;2023-03-12T06:20:10;3.70;79.90
2763;DHT22;1389;51.490;7.338;2023-03-12T06:22:36;3.70;79.50
2763;DHT22;1389;51.490;7.338;2023-03-12T06:25:03;3.70;79.50
2763;DHT22;1389;51.490;7.338;2023-03-12T06:27:30;3.70;79.20
2763;DHT22;1389;51.490;7.338;2023-03-12T06:29:56;3.80;79.80
2763;DHT22;1389;51.490;7.338;2023-03-12T06:32:22;3.80;79.40
2763;DHT22;1389;51.490;7.338;2023-03-12T06:34:48;3.80;79.50
2763;DHT22;1389;51.490;7.338;2023-03-12T06:37:14;3.80;79.60
2763;DHT22;1389;51.490;7.338;2023-03-12T06:39:40;3.80;79.90
2763;DHT22;1389;51.490;7.338;2023-03-12T06:42:07;3.80;80.60
2763;DHT22;1389;51.490;7.338;2023-03-12T06:44:33;3.80;80.80
2763;DHT22;1389;51.490;7.338;2023-03-12T06:46:59;3.80;80.60
2763;DHT22;1389;51.490;7.338;2023-03-12T06:49:25;3.90;80.90
2763;DHT22;1389;51.490;7.338;2023-03-12T06:51:52;3.90;80.80
2763;DHT22;1389;51.490;7.338;2023-03-12T06:54:19;3.90;81.30
2763;DHT22;1389;51.490;7.338;2023-03-12T06:56:45;3.90;81.70
2763;DHT22;1389;51.490;7.338;2023-03-12T06:59:11;3.90;80.90
2763;DHT22;1389;51.490;7.338;2023-03-12T07:01:37;4.00;80.80
2763;DHT22;1389;51.490;7.338;2023-03-12T07:04:03;4.00;81.00
2763;DHT22;1389;51.490;7.338;2023-03-12T07:06:29;4.00;81.20
2763;DHT22;1389;51.490;7.338;2023-03-12T07:08:55;4.00;81.80
2763;DHT22;1389;51.490;7.338;2023-03-12T07:11:21;4.00;81.80
2763;DHT22;1389;51.490;7.338;2023-03-12T07:13:47;3.90;82.20
2763;DHT22;1389;51.490;7.338;2023-03-12T07:16:13;4.00;82.30
2763;DHT22;1389;51.490;7.338;2023-03-12T07:18:39;3.90;82.20
2763;DHT22;1389;51.490;7.338;2023-03-12T07:21:06;3.90;82.70
2763;DHT22;1389;51.490;7.338;2023-03-12T07:23:32;3.90;82.80
2763;DHT22;1389;51.490;7.338;2023-03-12T07:25:58;4.00;83.20
2763;DHT22;1389;51.490;7.338;2023-03-12T07:28:24;4.00;83.20
2763;DHT22;1389;51.490;7.338;2023-03-12T07:30:50;4.00;83.60
2763;DHT22;1389;51.490;7.338;2023-03-12T07:33:20;4.00;83.80
2763;DHT22;1389;51.490;7.338;2023-03-12T07:35:47;4.00;83.80
2763;DHT22;1389;51.490;7.338;2023-03-12T07:38:13;4.00;83.80
2763;DHT22;1389;51.490;7.338;2023-03-12T07:40:39;4.00;84.20
2763;DHT22;1389;51.490;7.338;2023-03-12T07:43:05;4.10;84.50
2763;DHT22;1389;51.490;7.338;2023-03-12T07:45:38;4.10;84.60
2763;DHT22;1389;51.490;7.338;2023-03-12T07:48:05;4.10;84.90
2763;DHT22;1389;51.490;7.338;2023-03-12T07:50:32;4.10;85.50
2763;DHT22;1389;51.490;7.338;2023-03-12T07:52:58;4.10;85.80
2763;DHT22;1389;51.490;7.338;2023-03-12T07:55:25;4.10;86.20
2763;DHT22;1389;51.490;7.338;2023-03-12T07:57:51;4.00;86.50
2763;DHT22;1389;51.490;7.338;2023-03-12T08:00:17;4.10;87.00
2763;DHT22;1389;51.490;7.338;2023-03-12T08:02:43;4.10;87.30
2763;DHT22;1389;51.490;7.338;2023-03-12T08:05:09;4.10;87.60
2763;DHT22;1389;51.490;7.338;2023-03-12T08:07:36;4.20;87.80
2763;DHT22;1389;51.490;7.338;2023-03-12T08:10:06;4.20;88.10
2763;DHT22;1389;51.490;7.338;2023-03-12T08:12:32;4.20;88.10
2763;DHT22;1389;51.490;7.338;2023-03-12T08:14:58;4.20;88.40
2763;DHT22;1389;51.490;7.338;2023-03-12T08:17:25;4.20;88.50
2763;DHT22;1389;51.490;7.338;2023-03-12T08:19:51;4.20;88.70
2763;DHT22;1389;51.490;7.338;2023-03-12T08:22:17;4.20;89.10
2763;DHT22;1389;51.490;7.338;2023-03-12T08:24:43;4.20;89.40
2763;DHT22;1389;51.490;7.338;2023-03-12T08:27:09;4.20;89.40
2763;DHT22;1389;51.490;7.338;2023-03-12T08:29:37;4.20;89.80
2763;DHT22;1389;51.490;7.338;2023-03-12T08:32:04;4.30;90.10
2763;DHT22;1389;51.490;7.338;2023-03-12T08:34:31;4.30;90.40
2763;DHT22;1389;51.490;7.338;2023-03-12T08:36:58;4.40;90.40
2763;DHT22;1389;51.490;7.338;2023-03-12T08:39:24;4.50;90.40
2763;DHT22;1389;51.490;7.338;2023-03-12T08:41:50;4.50;90.20
2763;DHT22;1389;51.490;7.338;2023-03-12T08:44:21;4.50;90.00
2763;DHT22;1389;51.490;7.338;2023-03-12T08:46:47;4.50;90.10
2763;DHT22;1389;51.490;7.338;2023-03-12T08:49:13;4.60;90.30
2763;DHT22;1389;51.490;7.338;2023-03-12T08:51:39;4.70;90.30
2763;DHT22;1389;51.490;7.338;2023-03-12T08:54:05;4.70;90.20
2763;DHT22;1389;51.490;7.338;2023-03-12T08:56:32;4.80;90.50
2763;DHT22;1389;51.490;7.338;2023-03-12T08:58:58;4.80;90.20
2763;DHT22;1389;51.490;7.338;2023-03-12T09:01:24;4.90;90.00
2763;DHT22;1389;51.490;7.338;2023-03-12T09:03:50;4.90;89.80
2763;DHT22;1389;51.490;7.338;2023-03-12T09:06:19;4.90;90.00
2763;DHT22;1389;51.490;7.338;2023-03-12T09:08:46;4.90;90.20
2763;DHT22;1389;51.490;7.338;2023-03-12T09:11:14;5.00;90.20
2763;DHT22;1389;51.490;7.338;2023-03-12T09:13:42;5.00;90.30
2763;DHT22;1389;51.490;7.338;2023-03-12T09:16:08;5.10;90.30
2763;DHT22;1389;51.490;7.338;2023-03-12T09:18:34;5.20;90.10
2763;DHT22;1389;51.490;7.338;2023-03-12T09:21:01;5.20;90.10
2763;DHT22;1389;51.490;7.338;2023-03-12T09:23:28;5.30;89.90
2763;DHT22;1389;51.490;7.338;2023-03-12T09:25:55;5.30;90.20
2763;DHT22;1389;51.490;7.338;2023-03-12T09:28:22;5.30;90.70
2763;DHT22;1389;51.490;7.338;2023-03-12T09:30:48;5.40;90.30
2763;DHT22;1389;51.490;7.338;2023-03-12T09:33:14;5.40;90.50
2763;DHT22;1389;51.490;7.338;2023-03-12T09:35:41;5.50;90.80
2763;DHT22;1389;51.490;7.338;2023-03-12T09:38:10;5.50;91.10
2763;DHT22;1389;51.490;7.338;2023-03-12T09:40:36;5.50;91.00
2763;DHT22;1389;51.490;7.338;2023-03-12T09:43:20;5.50;91.00
2763;DHT22;1389;51.490;7.338;2023-03-12T09:45:48;5.50;91.10
2763;DHT22;1389;51.490;7.338;2023-03-12T09:48:18;5.50;91.40
2763;DHT22;1389;51.490;7.338;2023-03-12T09:50:48;5.60;91.00
2763;DHT22;1389;51.490;7.338;2023-03-12T09:53:28;5.60;91.30
2763;DHT22;1389;51.490;7.338;2023-03-12T09:55:57;5.60;91.50
2763;DHT22;1389;51.490;7.338;2023-03-12T09:58:33;5.60;91.70
2763;DHT22;1389;51.490;7.338;2023-03-12T10:01:31;5.50;91.80
2763;DHT22;1389;51.490;7.338;2023-03-12T10:04:28;5.50;92.00
2763;DHT22;1389;51.490;7.338;2023-03-12T10:18:24;5.60;92.80
2763;DHT22;1389;51.490;7.338;2023-03-12T10:26:50;5.60;93.70
2763;DHT22;1389;51.490;7.338;2023-03-12T10:29:20;5.70;94.20
2763;DHT22;1389;51.490;7.338;2023-03-12T10:31:50;5.70;94.50
2763;DHT22;1389;51.490;7.338;2023-03-12T10:34:39;5.70;94.60
2763;DHT22;1389;51.490;7.338;2023-03-12T10:37:24;5.70;94.80
2763;DHT22;1389;51.490;7.338;2023-03-12T10:39:52;5.80;95.40
2763;DHT22;1389;51.490;7.338;2023-03-12T10:42:23;5.80;95.60
2763;DHT22;1389;51.490;7.338;2023-03-12T10:47:34;5.90;96.20
2763;DHT22;1389;51.490;7.338;2023-03-12T10:50:18;5.90;96.10
2763;DHT22;1389;51.490;7.338;2023-03-12T10:52:46;6.00;96.10
2763;DHT22;1389;51.490;7.338;2023-03-12T10:57:49;6.10;96.40
2763;DHT22;1389;51.490;7.338;2023-03-12T11:00:22;6.10;96.70
2763;DHT22;1389;51.490;7.338;2023-03-12T11:03:05;6.20;96.90
2763;DHT22;1389;51.490;7.338;2023-03-12T11:05:48;6.20;97.10
2763;DHT22;1389;51.490;7.338;2023-03-12T11:08:34;6.30;97.10
2763;DHT22;1389;51.490;7.338;2023-03-12T11:11:02;6.40;97.40
2763;DHT22;1389;51.490;7.338;2023-03-12T11:13:39;6.40;97.50
2763;DHT22;1389;51.490;7.338;2023-03-12T11:19:00;6.50;97.50
2763;DHT22;1389;51.490;7.338;2023-03-12T11:21:30;6.50;97.70
2763;DHT22;1389;51.490;7.338;2023-03-12T11:26:55;6.50;97.60
2763;DHT22;1389;51.490;7.338;2023-03-12T11:34:40;6.60;98.00
2763;DHT22;1389;51.490;7.338;2023-03-12T11:40:16;6.70;97.80
2763;DHT22;1389;51.490;7.338;2023-03-12T11:57:06;7.00;98.90
2763;DHT22;1389;51.490;7.338;2023-03-12T12:03:19;7.10;99.20
2763;DHT22;1389;51.490;7.338;2023-03-12T12:11:27;7.30;99.10
2763;DHT22;1389;51.490;7.338;2023-03-12T12:17:12;7.40;98.90
2763;DHT22;1389;51.490;7.338;2023-03-12T12:25:19;7.50;98.80
2763;DHT22;1389;51.490;7.338;2023-03-12T12:35:53;7.70;99.30
2763;DHT22;1389;51.490;7.338;2023-03-12T12:41:17;7.90;99.30
2763;DHT22;1389;51.490;7.338;2023-03-12T12:46:56;8.10;99.30
2763;DHT22;1389;51.490;7.338;2023-03-12T12:49:45;8.20;99.30
2763;DHT22;1389;51.490;7.338;2023-03-12T12:52:19;8.30;99.30
2763;DHT22;1389;51.490;7.338;2023-03-12T13:02:57;8.50;98.70
2763;DHT22;1389;51.490;7.338;2023-03-12T13:08:03;8.60;98.60
2763;DHT22;1389;51.490;7.338;2023-03-12T13:13:19;8.60;98.70
2763;DHT22;1389;51.490;7.338;2023-03-12T13:15:46;8.70;98.60
2763;DHT22;1389;51.490;7.338;2023-03-12T13:18:27;8.70;98.70
2763;DHT22;1389;51.490;7.338;2023-03-12T13:26:45;8.70;98.90
2763;DHT22;1389;51.490;7.338;2023-03-12T13:31:54;8.90;98.70
2763;DHT22;1389;51.490;7.338;2023-03-12T13:36:50;9.00;98.70
2763;DHT22;1389;51.490;7.338;2023-03-12T13:39:50;9.10;98.70
2763;DHT22;1389;51.490;7.338;2023-03-12T13:42:34;9.20;98.40
2763;DHT22;1389;51.490;7.338;2023-03-12T13:45:29;9.30;98.20
2763;DHT22;1389;51.490;7.338;2023-03-12T13:48:00;9.30;98.10
2763;DHT22;1389;51.490;7.338;2023-03-12T13:50:28;9.40;98.00
2763;DHT22;1389;51.490;7.338;2023-03-12T13:53:07;9.40;97.80
2763;DHT22;1389;51.490;7.338;2023-03-12T13:55:40;9.50;97.60
2763;DHT22;1389;51.490;7.338;2023-03-12T13:58:18;9.50;97.50
2763;DHT22;1389;51.490;7.338;2023-03-12T14:00:56;9.50;97.50
2763;DHT22;1389;51.490;7.338;2023-03-12T14:03:34;9.60;97.40
2763;DHT22;1389;51.490;7.338;2023-03-12T14:14:28;9.70;97.20
2763;DHT22;1389;51.490;7.338;2023-03-12T14:16:58;9.80;97.00
2763;DHT22;1389;51.490;7.338;2023-03-12T14:19:30;9.80;96.90
2763;DHT22;1389;51.490;7.338;2023-03-12T14:22:01;9.90;97.00
2763;DHT22;1389;51.490;7.338;2023-03-12T14:24:50;10.00;96.60
2763;DHT22;1389;51.490;7.338;2023-03-12T14:27:20;10.00;96.60
2763;DHT22;1389;51.490;7.338;2023-03-12T14:29:54;10.10;96.40
2763;DHT22;1389;51.490;7.338;2023-03-12T14:32:24;10.10;96.40
2763;DHT22;1389;51.490;7.338;2023-03-12T14:35:15;10.10;96.30
2763;DHT22;1389;51.490;7.338;2023-03-12T14:38:19;10.10;96.30
2763;DHT22;1389;51.490;7.338;2023-03-12T14:43:30;10.30;95.70
2763;DHT22;1389;51.490;7.338;2023-03-12T14:45:59;10.20;95.70
2763;DHT22;1389;51.490;7.338;2023-03-12T14:48:31;10.20;95.80
2763;DHT22;1389;51.490;7.338;2023-03-12T14:50:58;10.30;95.70
2763;DHT22;1389;51.490;7.338;2023-03-12T14:53:31;10.30;95.60
2763;DHT22;1389;51.490;7.338;2023-03-12T14:56:12;10.30;95.70
2763;DHT22;1389;51.490;7.338;2023-03-12T14:58:44;10.30;95.70
2763;DHT22;1389;51.490;7.338;2023-03-12T15:01:13;10.40;95.60
2763;DHT22;1389;51.490;7.338;2023-03-12T15:03:46;10.40;95.50
2763;DHT22;1389;51.490;7.338;2023-03-12T15:06:18;10.40;95.50
2763;DHT22;1389;51.490;7.338;2023-03-12T15:08:44;10.40;95.50
2763;DHT22;1389;51.490;7.338;2023-03-12T15:11:11;10.40;95.60
2763;DHT22;1389;51.490;7.338;2023-03-12T15:13:38;10.40;95.50
2763;DHT22;1389;51.490;7.338;2023-03-12T15:16:05;10.40;95.30
2763;DHT22;1389;51.490;7.338;2023-03-12T15:18:31;10.40;95.20
2763;DHT22;1389;51.490;7.338;2023-03-12T15:21:00;10.40;95.10
2763;DHT22;1389;51.490;7.338;2023-03-12T15:23:29;10.40;95.10
2763;DHT22;1389;51.490;7.338;2023-03-12T15:29:15;10.50;95.10
2763;DHT22;1389;51.490;7.338;2023-03-12T15:31:52;10.60;94.50
2763;DHT22;1389;51.490;7.338;2023-03-12T15:37:01;10.60;93.90
2763;DHT22;1389;51.490;7.338;2023-03-12T15:39:32;10.70;93.60
2763;DHT22;1389;51.490;7.338;2023-03-12T15:42:07;10.70;93.30
2763;DHT22;1389;51.490;7.338;2023-03-12T15:44:56;10.70;93.20
2763;DHT22;1389;51.490;7.338;2023-03-12T15:47:28;10.70;93.30
2763;DHT22;1389;51.490;7.338;2023-03-12T15:49:58;10.70;93.30
2763;DHT22;1389;51.490;7.338;2023-03-12T15:57:50;10.80;92.50
2763;DHT22;1389;51.490;7.338;2023-03-12T16:00:48;10.80;92.10
2763;DHT22;1389;51.490;7.338;2023-03-12T16:03:19;10.80;92.10
2763;DHT22;1389;51.490;7.338;2023-03-12T16:05:46;10.80;91.90
2763;DHT22;1389;51.490;7.338;2023-03-12T16:08:17;10.90;91.30
2763;DHT22;1389;51.490;7.338;2023-03-12T16:10:45;10.90;90.90
2763;DHT22;1389;51.490;7.338;2023-03-12T16:13:20;10.90;90.90
2763;DHT22;1389;51.490;7.338;2023-03-12T16:15:47;10.90;90.70
2763;DHT22;1389;51.490;7.338;2023-03-12T16:18:15;10.80;90.50
2763;DHT22;1389;51.490;7.338;2023-03-12T16:20:42;10.80;90.50
2763;DHT22;1389;51.490;7.338;2023-03-12T16:23:08;10.90;89.80
2763;DHT22;1389;51.490;7.338;2023-03-12T16:25:35;10.90;89.70
2763;DHT22;1389;51.490;7.338;2023-03-12T16:28:03;10.90;89.70
2763;DHT22;1389;51.490;7.338;2023-03-12T16:30:35;10.90;89.80
2763;DHT22;1389;51.490;7.338;2023-03-12T16:33:03;10.90;89.40
2763;DHT22;1389;51.490;7.338;2023-03-12T16:35:30;11.00;89.30
2763;DHT22;1389;51.490;7.338;2023-03-12T16:37:57;11.00;88.80
2763;DHT22;1389;51.490;7.338;2023-03-12T16:40:27;11.00;88.60
2763;DHT22;1389;51.490;7.338;2023-03-12T16:42:54;10.90;88.70
2763;DHT22;1389;51.490;7.338;2023-03-12T16:45:20;10.90;88.80
2763;DHT22;1389;51.490;7.338;2023-03-12T16:47:52;10.90;89.00
2763;DHT22;1389;51.490;7.338;2023-03-12T16:50:21;11.00;88.60
2763;DHT22;1389;51.490;7.338;2023-03-12T16:52:48;11.00;88.20
2763;DHT22;1389;51.490;7.338;2023-03-12T16:55:19;11.00;87.90
2763;DHT22;1389;51.490;7.338;2023-03-12T16:57:57;11.00;87.30
2763;DHT22;1389;51.490;7.338;2023-03-12T17:00:28;11.00;86.60
2763;DHT22;1389;51.490;7.338;2023-03-12T17:02:55;11.00;86.50
2763;DHT22;1389;51.490;7.338;2023-03-12T17:05:24;11.00;86.30
2763;DHT22;1389;51.490;7.338;2023-03-12T17:07:50;11.00;86.00
2763;DHT22;1389;51.490;7.338;2023-03-12T17:10:16;10.90;85.90
2763;DHT22;1389;51.490;7.338;2023-03-12T17:12:42;10.90;85.50
2763;DHT22;1389;51.490;7.338;2023-03-12T17:15:20;10.90;85.10
2763;DHT22;1389;51.490;7.338;2023-03-12T17:17:48;10.90;85.80
2763;DHT22;1389;51.490;7.338;2023-03-12T17:20:16;10.90;85.20
2763;DHT22;1389;51.490;7.338;2023-03-12T17:22:43;10.90;85.00
2763;DHT22;1389;51.490;7.338;2023-03-12T17:25:27;10.90;84.90
2763;DHT22;1389;51.490;7.338;2023-03-12T17:27:53;10.90;85.10
2763;DHT22;1389;51.490;7.338;2023-03-12T17:30:21;10.80;85.10
2763;DHT22;1389;51.490;7.338;2023-03-12T17:32:48;10.80;85.00
2763;DHT22;1389;51.490;7.338;2023-03-12T17:35:14;10.80;84.20
2763;DHT22;1389;51.490;7.338;2023-03-12T17:37:40;10.80;84.40
2763;DHT22;1389;51.490;7.338;2023-03-12T17:40:07;10.80;85.10
2763;DHT22;1389;51.490;7.338;2023-03-12T17:42:35;10.80;84.60
2763;DHT22;1389;51.490;7.338;2023-03-12T17:45:04;10.80;84.50
2763;DHT22;1389;51.490;7.338;2023-03-12T17:47:30;10.80;83.90
2763;DHT22;1389;51.490;7.338;2023-03-12T17:49:57;10.80;83.80
2763;DHT22;1389;51.490;7.338;2023-03-12T17:52:23;10.80;84.30
2763;DHT22;1389;51.490;7.338;2023-03-12T17:54:49;10.80;84.40
2763;DHT22;1389;51.490;7.338;2023-03-12T17:57:15;10.70;84.70
2763;DHT22;1389;51.490;7.338;2023-03-12T17:59:41;10.80;84.20
2763;DHT22;1389;51.490;7.338;2023-03-12T18:02:10;10.80;83.50
2763;DHT22;1389;51.490;7.338;2023-03-12T18:04:38;10.80;83.40
2763;DHT22;1389;51.490;7.338;2023-03-12T18:07:04;10.80;83.50
2763;DHT22;1389;51.490;7.338;2023-03-12T18:09:30;10.80;83.90
2763;DHT22;1389;51.490;7.338;2023-03-12T18:11:56;10.70;84.10
2763;DHT22;1389;51.490;7.338;2023-03-12T18:14:22;10.70;84.90
2763;DHT22;1389;51.490;7.338;2023-03-12T18:16:48;10.70;84.00
2763;DHT22;1389;51.490;7.338;2023-03-12T18:19:14;10.70;83.70
2763;DHT22;1389;51.490;7.338;2023-03-12T18:21:40;10.70;84.40
2763;DHT22;1389;51.490;7.338;2023-03-12T18:24:07;10.70;84.40
2763;DHT22;1389;51.490;7.338;2023-03-12T18:26:33;10.70;83.30
2763;DHT22;1389;51.490;7.338;2023-03-12T18:28:59;10.70;83.70
2763;DHT22;1389;51.490;7.338;2023-03-12T18:31:27;10.70;84.00
2763;DHT22;1389;51.490;7.338;2023-03-12T18:33:53;10.70;84.30
2763;DHT22;1389;51.490;7.338;2023-03-12T18:36:19;10.70;84.60